sensor_id;sensor_type;location;lat;lon;timestamp;temperature;humidity
69598;SHT31;56802;51.184;-115.558;2022-11-20T00:01:48;-5.44;52.16
69598;SHT31;56802;51.184;-115.558;2022-11-20T00:04:17;-5.47;52.23
69598;SHT31;56802;51.184;-115.558;2022-11-20T00:06:46;-5.49;52.20
69598;SHT31;56802;51.184;-115.558;2022-11-20T00:09:15;-5.53;52.55
69598;SHT31;56802;51.184;-115.558;2022-11-20T00:11:45;-5.61;52.73
69598;SHT31;56802;51.184;-115.558;2022-11-20T00:14:14;-5.66;52.81
69598;SHT31;56802;51.184;-115.558;2022-11-20T00:16:44;-5.70;52.78
69598;SHT31;56802;51.184;-115.558;2022-11-20T00:19:14;-5.70;52.70
69598;SHT31;56802;51.184;-115.558;2022-11-20T00:21:44;-5.70;52.48
69598;SHT31;56802;51.184;-115.558;2022-11-20T00:24:13;-5.71;52.37
69598;SHT31;56802;51.184;-115.558;2022-11-20T00:26:42;-5.71;52.15
69598;SHT31;56802;51.184;-115.558;2022-11-20T00:29:12;-5.71;52.16
69598;SHT31;56802;51.184;-115.558;2022-11-20T00:31:41;-5.70;52.39
69598;SHT31;56802;51.184;-115.558;2022-11-20T00:34:10;-5.72;52.44
69598;SHT31;56802;51.184;-115.558;2022-11-20T00:36:39;-5.76;52.57
69598;SHT31;56802;51.184;-115.558;2022-11-20T00:39:08;-5.80;52.52
69598;SHT31;56802;51.184;-115.558;2022-11-20T00:41:37;-5.80;52.86
69598;SHT31;56802;51.184;-115.558;2022-11-20T00:44:06;-5.83;53.02
69598;SHT31;56802;51.184;-115.558;2022-11-20T00:46:36;-5.83;52.84
69598;SHT31;56802;51.184;-115.558;2022-11-20T00:49:05;-5.93;52.86
69598;SHT31;56802;51.184;-115.558;2022-11-20T00:51:34;-6.03;53.08
69598;SHT31;56802;51.184;-115.558;2022-11-20T00:54:03;-6.17;53.36
69598;SHT31;56802;51.184;-115.558;2022-11-20T00:56:34;-6.29;53.47
69598;SHT31;56802;51.184;-115.558;2022-11-20T00:59:04;-6.25;53.37
69598;SHT31;56802;51.184;-115.558;2022-11-20T01:01:33;-6.23;53.74
69598;SHT31;56802;51.184;-115.558;2022-11-20T01:04:03;-6.29;53.66
69598;SHT31;56802;51.184;-115.558;2022-11-20T01:06:34;-6.41;53.74
69598;SHT31;56802;51.184;-115.558;2022-11-20T01:09:08;-6.55;54.00
69598;SHT31;56802;51.184;-115.558;2022-11-20T01:11:42;-6.62;54.09
69598;SHT31;56802;51.184;-115.558;2022-11-20T01:14:14;-6.70;54.43
69598;SHT31;56802;51.184;-115.558;2022-11-20T01:16:47;-6.76;54.58
69598;SHT31;56802;51.184;-115.558;2022-11-20T01:19:20;-6.82;54.86
69598;SHT31;56802;51.184;-115.558;2022-11-20T01:21:52;-6.86;55.10
69598;SHT31;56802;51.184;-115.558;2022-11-20T01:24:22;-6.85;55.00
69598;SHT31;56802;51.184;-115.558;2022-11-20T01:26:51;-6.86;55.15
69598;SHT31;56802;51.184;-115.558;2022-11-20T01:29:22;-6.90;55.30
69598;SHT31;56802;51.184;-115.558;2022-11-20T01:31:53;-6.92;55.28
69598;SHT31;56802;51.184;-115.558;2022-11-20T01:34:22;-6.91;55.09
69598;SHT31;56802;51.184;-115.558;2022-11-20T01:36:52;-6.94;55.02
69598;SHT31;56802;51.184;-115.558;2022-11-20T01:39:23;-6.99;55.18
69598;SHT31;56802;51.184;-115.558;2022-11-20T01:41:54;-7.05;55.66
69598;SHT31;56802;51.184;-115.558;2022-11-20T01:44:58;-7.08;55.57
69598;SHT31;56802;51.184;-115.558;2022-11-20T01:47:32;-7.09;55.67
69598;SHT31;56802;51.184;-115.558;2022-11-20T01:50:15;-7.11;55.82
69598;SHT31;56802;51.184;-115.558;2022-11-20T01:55:31;-7.16;56.14
69598;SHT31;56802;51.184;-115.558;2022-11-20T01:58:09;-7.15;56.04
69598;SHT31;56802;51.184;-115.558;2022-11-20T02:00:40;-7.15;56.12
69598;SHT31;56802;51.184;-115.558;2022-11-20T02:03:15;-7.14;56.00
69598;SHT31;56802;51.184;-115.558;2022-11-20T02:05:51;-7.12;55.91
69598;SHT31;56802;51.184;-115.558;2022-11-20T02:08:38;-7.12;55.97
69598;SHT31;56802;51.184;-115.558;2022-11-20T02:11:07;-7.13;56.08
69598;SHT31;56802;51.184;-115.558;2022-11-20T02:13:37;-7.22;56.11
69598;SHT31;56802;51.184;-115.558;2022-11-20T02:16:28;-7.36;56.41
69598;SHT31;56802;51.184;-115.558;2022-11-20T02:19:04;-7.44;56.45
69598;SHT31;56802;51.184;-115.558;2022-11-20T02:24:30;-7.56;56.93
69598;SHT31;56802;51.184;-115.558;2022-11-20T02:27:03;-7.63;57.27
69598;SHT31;56802;51.184;-115.558;2022-11-20T02:29:39;-7.65;57.10
69598;SHT31;56802;51.184;-115.558;2022-11-20T02:32:24;-7.70;57.24
69598;SHT31;56802;51.184;-115.558;2022-11-20T02:34:56;-7.76;57.49
69598;SHT31;56802;51.184;-115.558;2022-11-20T02:37:29;-7.78;57.60
69598;SHT31;56802;51.184;-115.558;2022-11-20T02:40:02;-7.80;57.58
69598;SHT31;56802;51.184;-115.558;2022-11-20T02:42:32;-7.82;57.74
69598;SHT31;56802;51.184;-115.558;2022-11-20T02:45:01;-7.78;57.70
69598;SHT31;56802;51.184;-115.558;2022-11-20T02:47:31;-7.76;57.78
69598;SHT31;56802;51.184;-115.558;2022-11-20T02:50:00;-7.79;57.69
69598;SHT31;56802;51.184;-115.558;2022-11-20T02:52:31;-7.80;57.69
69598;SHT31;56802;51.184;-115.558;2022-11-20T02:55:03;-7.83;57.87
69598;SHT31;56802;51.184;-115.558;2022-11-20T02:57:33;-7.89;58.03
69598;SHT31;56802;51.184;-115.558;2022-11-20T03:00:03;-7.97;58.12
69598;SHT31;56802;51.184;-115.558;2022-11-20T03:02:34;-8.06;58.30
69598;SHT31;56802;51.184;-115.558;2022-11-20T03:05:03;-8.10;58.52
69598;SHT31;56802;51.184;-115.558;2022-11-20T03:07:32;-8.15;58.67
69598;SHT31;56802;51.184;-115.558;2022-11-20T03:10:02;-8.18;58.71
69598;SHT31;56802;51.184;-115.558;2022-11-20T03:12:32;-8.16;58.75
69598;SHT31;56802;51.184;-115.558;2022-11-20T03:15:01;-8.17;58.88
69598;SHT31;56802;51.184;-115.558;2022-11-20T03:17:31;-8.19;58.96
69598;SHT31;56802;51.184;-115.558;2022-11-20T03:20:00;-8.24;58.94
69598;SHT31;56802;51.184;-115.558;2022-11-20T03:22:29;-8.33;59.14
69598;SHT31;56802;51.184;-115.558;2022-11-20T03:24:58;-8.43;59.28
69598;SHT31;56802;51.184;-115.558;2022-11-20T03:27:31;-8.46;59.40
69598;SHT31;56802;51.184;-115.558;2022-11-20T03:30:04;-8.46;59.39
69598;SHT31;56802;51.184;-115.558;2022-11-20T03:32:34;-8.40;59.36
69598;SHT31;56802;51.184;-115.558;2022-11-20T03:35:03;-8.40;59.30
69598;SHT31;56802;51.184;-115.558;2022-11-20T03:37:33;-8.39;59.27
69598;SHT31;56802;51.184;-115.558;2022-11-20T03:40:03;-8.39;59.24
69598;SHT31;56802;51.184;-115.558;2022-11-20T03:42:33;-8.39;59.40
69598;SHT31;56802;51.184;-115.558;2022-11-20T03:45:16;-8.40;59.56
69598;SHT31;56802;51.184;-115.558;2022-11-20T03:47:46;-8.39;59.57
69598;SHT31;56802;51.184;-115.558;2022-11-20T03:50:16;-8.40;59.48
69598;SHT31;56802;51.184;-115.558;2022-11-20T03:52:45;-8.40;59.55
69598;SHT31;56802;51.184;-115.558;2022-11-20T03:55:14;-8.38;59.75
69598;SHT31;56802;51.184;-115.558;2022-11-20T03:57:43;-8.35;59.55
69598;SHT31;56802;51.184;-115.558;2022-11-20T04:00:12;-8.28;59.32
69598;SHT31;56802;51.184;-115.558;2022-11-20T04:02:42;-8.23;59.22
69598;SHT31;56802;51.184;-115.558;2022-11-20T04:05:12;-8.23;59.07
69598;SHT31;56802;51.184;-115.558;2022-11-20T04:07:41;-8.23;59.31
69598;SHT31;56802;51.184;-115.558;2022-11-20T04:10:10;-8.27;59.28
69598;SHT31;56802;51.184;-115.558;2022-11-20T04:12:39;-8.35;59.11
69598;SHT31;56802;51.184;-115.558;2022-11-20T04:15:08;-8.48;59.47
69598;SHT31;56802;51.184;-115.558;2022-11-20T04:17:38;-8.59;59.77
69598;SHT31;56802;51.184;-115.558;2022-11-20T04:20:07;-8.66;60.00
69598;SHT31;56802;51.184;-115.558;2022-11-20T04:22:37;-8.71;60.24
69598;SHT31;56802;51.184;-115.558;2022-11-20T04:25:06;-8.69;60.19
69598;SHT31;56802;51.184;-115.558;2022-11-20T04:27:36;-8.70;60.04
69598;SHT31;56802;51.184;-115.558;2022-11-20T04:30:05;-8.73;60.10
69598;SHT31;56802;51.184;-115.558;2022-11-20T04:32:35;-8.80;60.27
69598;SHT31;56802;51.184;-115.558;2022-11-20T04:35:06;-8.85;60.70
69598;SHT31;56802;51.184;-115.558;2022-11-20T04:37:38;-8.86;60.66
69598;SHT31;56802;51.184;-115.558;2022-11-20T04:40:07;-8.85;60.43
69598;SHT31;56802;51.184;-115.558;2022-11-20T04:42:37;-8.88;60.42
69598;SHT31;56802;51.184;-115.558;2022-11-20T04:45:06;-8.89;60.63
69598;SHT31;56802;51.184;-115.558;2022-11-20T04:47:35;-8.87;60.63
69598;SHT31;56802;51.184;-115.558;2022-11-20T04:50:05;-8.88;60.76
69598;SHT31;56802;51.184;-115.558;2022-11-20T04:52:35;-8.90;60.81
69598;SHT31;56802;51.184;-115.558;2022-11-20T04:55:04;-8.95;60.77
69598;SHT31;56802;51.184;-115.558;2022-11-20T04:57:34;-8.98;61.04
69598;SHT31;56802;51.184;-115.558;2022-11-20T05:00:03;-9.02;61.16
69598;SHT31;56802;51.184;-115.558;2022-11-20T05:02:33;-9.04;61.09
69598;SHT31;56802;51.184;-115.558;2022-11-20T05:05:02;-9.02;60.99
69598;SHT31;56802;51.184;-115.558;2022-11-20T05:07:32;-8.99;60.93
69598;SHT31;56802;51.184;-115.558;2022-11-20T05:10:01;-9.01;61.02
69598;SHT31;56802;51.184;-115.558;2022-11-20T05:12:31;-9.06;61.03
69598;SHT31;56802;51.184;-115.558;2022-11-20T05:15:00;-9.13;61.04
69598;SHT31;56802;51.184;-115.558;2022-11-20T05:17:29;-9.24;61.19
69598;SHT31;56802;51.184;-115.558;2022-11-20T05:19:58;-9.34;61.41
69598;SHT31;56802;51.184;-115.558;2022-11-20T05:22:27;-9.39;61.54
69598;SHT31;56802;51.184;-115.558;2022-11-20T05:24:56;-9.44;61.72
69598;SHT31;56802;51.184;-115.558;2022-11-20T05:27:27;-9.48;61.92
69598;SHT31;56802;51.184;-115.558;2022-11-20T05:29:56;-9.58;61.93
69598;SHT31;56802;51.184;-115.558;2022-11-20T05:32:25;-9.62;62.01
69598;SHT31;56802;51.184;-115.558;2022-11-20T05:34:54;-9.62;62.18
69598;SHT31;56802;51.184;-115.558;2022-11-20T05:37:23;-9.60;62.34
69598;SHT31;56802;51.184;-115.558;2022-11-20T05:39:52;-9.66;62.39
69598;SHT31;56802;51.184;-115.558;2022-11-20T05:42:21;-9.69;62.54
69598;SHT31;56802;51.184;-115.558;2022-11-20T05:45:00;-9.68;62.78
69598;SHT31;56802;51.184;-115.558;2022-11-20T05:47:36;-9.64;62.74
69598;SHT31;56802;51.184;-115.558;2022-11-20T05:50:05;-9.60;62.72
69598;SHT31;56802;51.184;-115.558;2022-11-20T05:52:37;-9.61;62.67
69598;SHT31;56802;51.184;-115.558;2022-11-20T05:55:06;-9.59;62.54
69598;SHT31;56802;51.184;-115.558;2022-11-20T05:57:36;-9.62;62.65
69598;SHT31;56802;51.184;-115.558;2022-11-20T06:00:05;-9.66;62.80
69598;SHT31;56802;51.184;-115.558;2022-11-20T06:02:35;-9.66;62.92
69598;SHT31;56802;51.184;-115.558;2022-11-20T06:05:04;-9.61;62.81
69598;SHT31;56802;51.184;-115.558;2022-11-20T06:07:34;-9.61;62.80
69598;SHT31;56802;51.184;-115.558;2022-11-20T06:10:03;-9.63;62.97
69598;SHT31;56802;51.184;-115.558;2022-11-20T06:12:33;-9.55;63.07
69598;SHT31;56802;51.184;-115.558;2022-11-20T06:15:02;-9.49;62.95
69598;SHT31;56802;51.184;-115.558;2022-11-20T06:17:33;-9.46;62.84
69598;SHT31;56802;51.184;-115.558;2022-11-20T06:20:03;-9.45;62.49
69598;SHT31;56802;51.184;-115.558;2022-11-20T06:22:32;-9.51;62.53
69598;SHT31;56802;51.184;-115.558;2022-11-20T06:25:01;-9.62;62.43
69598;SHT31;56802;51.184;-115.558;2022-11-20T06:27:31;-9.71;62.88
69598;SHT31;56802;51.184;-115.558;2022-11-20T06:30:00;-9.74;62.88
69598;SHT31;56802;51.184;-115.558;2022-11-20T06:32:29;-9.82;62.91
69598;SHT31;56802;51.184;-115.558;2022-11-20T06:34:58;-9.92;62.99
69598;SHT31;56802;51.184;-115.558;2022-11-20T06:37:30;-10.01;63.23
69598;SHT31;56802;51.184;-115.558;2022-11-20T06:39:59;-10.09;63.40
69598;SHT31;56802;51.184;-115.558;2022-11-20T06:42:28;-10.13;63.72
69598;SHT31;56802;51.184;-115.558;2022-11-20T06:44:57;-10.13;63.81
69598;SHT31;56802;51.184;-115.558;2022-11-20T06:47:26;-10.15;63.90
69598;SHT31;56802;51.184;-115.558;2022-11-20T06:49:55;-10.18;63.93
69598;SHT31;56802;51.184;-115.558;2022-11-20T06:52:24;-10.19;64.06
69598;SHT31;56802;51.184;-115.558;2022-11-20T06:54:53;-10.20;64.19
69598;SHT31;56802;51.184;-115.558;2022-11-20T06:57:22;-10.14;64.32
69598;SHT31;56802;51.184;-115.558;2022-11-20T06:59:51;-10.16;64.20
69598;SHT31;56802;51.184;-115.558;2022-11-20T07:02:21;-10.18;64.30
69598;SHT31;56802;51.184;-115.558;2022-11-20T07:04:50;-10.16;64.25
69598;SHT31;56802;51.184;-115.558;2022-11-20T07:07:19;-10.14;64.30
69598;SHT31;56802;51.184;-115.558;2022-11-20T07:09:48;-10.20;64.35
69598;SHT31;56802;51.184;-115.558;2022-11-20T07:12:17;-10.27;64.39
69598;SHT31;56802;51.184;-115.558;2022-11-20T07:14:46;-10.28;64.63
69598;SHT31;56802;51.184;-115.558;2022-11-20T07:17:16;-10.28;64.72
69598;SHT31;56802;51.184;-115.558;2022-11-20T07:19:45;-10.26;64.53
69598;SHT31;56802;51.184;-115.558;2022-11-20T07:22:14;-10.29;64.57
69598;SHT31;56802;51.184;-115.558;2022-11-20T07:24:44;-10.35;64.70
69598;SHT31;56802;51.184;-115.558;2022-11-20T07:27:12;-10.39;64.89
69598;SHT31;56802;51.184;-115.558;2022-11-20T07:29:41;-10.40;65.10
69598;SHT31;56802;51.184;-115.558;2022-11-20T07:32:11;-10.35;65.13
69598;SHT31;56802;51.184;-115.558;2022-11-20T07:34:40;-10.36;65.04
69598;SHT31;56802;51.184;-115.558;2022-11-20T07:37:09;-10.39;64.94
69598;SHT31;56802;51.184;-115.558;2022-11-20T07:39:38;-10.42;65.12
69598;SHT31;56802;51.184;-115.558;2022-11-20T07:42:07;-10.43;65.08
69598;SHT31;56802;51.184;-115.558;2022-11-20T07:44:39;-10.47;65.00
69598;SHT31;56802;51.184;-115.558;2022-11-20T07:47:08;-10.49;65.20
69598;SHT31;56802;51.184;-115.558;2022-11-20T07:49:38;-10.52;65.29
69598;SHT31;56802;51.184;-115.558;2022-11-20T07:52:07;-10.59;65.34
69598;SHT31;56802;51.184;-115.558;2022-11-20T07:54:36;-10.64;65.62
69598;SHT31;56802;51.184;-115.558;2022-11-20T07:57:05;-10.68;65.80
69598;SHT31;56802;51.184;-115.558;2022-11-20T07:59:34;-10.69;66.01
69598;SHT31;56802;51.184;-115.558;2022-11-20T08:02:03;-10.63;66.20
69598;SHT31;56802;51.184;-115.558;2022-11-20T08:04:32;-10.61;66.23
69598;SHT31;56802;51.184;-115.558;2022-11-20T08:07:01;-10.57;66.25
69598;SHT31;56802;51.184;-115.558;2022-11-20T08:09:30;-10.56;66.06
69598;SHT31;56802;51.184;-115.558;2022-11-20T08:12:00;-10.54;65.92
69598;SHT31;56802;51.184;-115.558;2022-11-20T08:14:48;-10.54;66.11
69598;SHT31;56802;51.184;-115.558;2022-11-20T08:17:17;-10.50;66.12
69598;SHT31;56802;51.184;-115.558;2022-11-20T08:19:46;-10.47;65.98
69598;SHT31;56802;51.184;-115.558;2022-11-20T08:22:15;-10.46;65.94
69598;SHT31;56802;51.184;-115.558;2022-11-20T08:24:45;-10.43;65.89
69598;SHT31;56802;51.184;-115.558;2022-11-20T08:27:14;-10.38;65.90
69598;SHT31;56802;51.184;-115.558;2022-11-20T08:29:44;-10.36;65.93
69598;SHT31;56802;51.184;-115.558;2022-11-20T08:32:13;-10.36;65.65
69598;SHT31;56802;51.184;-115.558;2022-11-20T08:34:42;-10.35;65.67
69598;SHT31;56802;51.184;-115.558;2022-11-20T08:37:11;-10.32;65.69
69598;SHT31;56802;51.184;-115.558;2022-11-20T08:39:40;-10.32;65.56
69598;SHT31;56802;51.184;-115.558;2022-11-20T08:42:09;-10.28;65.43
69598;SHT31;56802;51.184;-115.558;2022-11-20T08:44:38;-10.26;65.51
69598;SHT31;56802;51.184;-115.558;2022-11-20T08:47:07;-10.27;65.59
69598;SHT31;56802;51.184;-115.558;2022-11-20T08:49:39;-10.27;65.42
69598;SHT31;56802;51.184;-115.558;2022-11-20T08:52:09;-10.31;65.51
69598;SHT31;56802;51.184;-115.558;2022-11-20T08:54:38;-10.30;65.52
69598;SHT31;56802;51.184;-115.558;2022-11-20T08:57:07;-10.30;65.47
69598;SHT31;56802;51.184;-115.558;2022-11-20T08:59:36;-10.30;65.47
69598;SHT31;56802;51.184;-115.558;2022-11-20T09:02:25;-10.23;65.45
69598;SHT31;56802;51.184;-115.558;2022-11-20T09:04:55;-10.19;65.35
69598;SHT31;56802;51.184;-115.558;2022-11-20T09:07:24;-10.17;65.31
69598;SHT31;56802;51.184;-115.558;2022-11-20T09:09:53;-10.16;65.25
69598;SHT31;56802;51.184;-115.558;2022-11-20T09:12:43;-10.14;65.16
69598;SHT31;56802;51.184;-115.558;2022-11-20T09:15:12;-10.14;65.12
69598;SHT31;56802;51.184;-115.558;2022-11-20T09:17:42;-10.12;64.96
69598;SHT31;56802;51.184;-115.558;2022-11-20T09:20:19;-10.15;64.82
69598;SHT31;56802;51.184;-115.558;2022-11-20T09:22:49;-10.12;64.96
69598;SHT31;56802;51.184;-115.558;2022-11-20T09:25:18;-10.12;64.91
69598;SHT31;56802;51.184;-115.558;2022-11-20T09:27:54;-10.14;65.04
69598;SHT31;56802;51.184;-115.558;2022-11-20T09:30:25;-10.13;65.03
69598;SHT31;56802;51.184;-115.558;2022-11-20T09:32:55;-10.15;64.91
69598;SHT31;56802;51.184;-115.558;2022-11-20T09:35:24;-10.16;64.87
69598;SHT31;56802;51.184;-115.558;2022-11-20T09:37:54;-10.15;65.00
69598;SHT31;56802;51.184;-115.558;2022-11-20T09:40:25;-10.14;64.77
69598;SHT31;56802;51.184;-115.558;2022-11-20T09:42:59;-10.16;64.71
69598;SHT31;56802;51.184;-115.558;2022-11-20T09:54:22;-10.34;65.11
69598;SHT31;56802;51.184;-115.558;2022-11-20T09:57:03;-10.35;65.18
69598;SHT31;56802;51.184;-115.558;2022-11-20T09:59:42;-10.36;65.25
69598;SHT31;56802;51.184;-115.558;2022-11-20T10:04:53;-10.31;65.41
69598;SHT31;56802;51.184;-115.558;2022-11-20T10:07:48;-10.25;65.38
69598;SHT31;56802;51.184;-115.558;2022-11-20T10:10:47;-10.19;65.20
69598;SHT31;56802;51.184;-115.558;2022-11-20T10:25:20;-10.23;65.03
69598;SHT31;56802;51.184;-115.558;2022-11-20T10:31:27;-10.17;65.00
69598;SHT31;56802;51.184;-115.558;2022-11-20T10:34:08;-10.20;65.02
69598;SHT31;56802;51.184;-115.558;2022-11-20T10:37:06;-10.19;65.13
69598;SHT31;56802;51.184;-115.558;2022-11-20T10:48:16;-10.15;65.00
69598;SHT31;56802;51.184;-115.558;2022-11-20T10:57:05;-9.96;64.88
69598;SHT31;56802;51.184;-115.558;2022-11-20T11:00:03;-9.93;64.41
69598;SHT31;56802;51.184;-115.558;2022-11-20T11:02:48;-9.91;64.35
69598;SHT31;56802;51.184;-115.558;2022-11-20T11:08:13;-9.95;64.42
69598;SHT31;56802;51.184;-115.558;2022-11-20T11:10:59;-9.98;64.38
69598;SHT31;56802;51.184;-115.558;2022-11-20T11:13:41;-10.01;64.32
69598;SHT31;56802;51.184;-115.558;2022-11-20T11:16:23;-9.99;64.28
69598;SHT31;56802;51.184;-115.558;2022-11-20T11:19:04;-9.91;64.23
69598;SHT31;56802;51.184;-115.558;2022-11-20T11:21:53;-9.96;64.27
69598;SHT31;56802;51.184;-115.558;2022-11-20T11:24:25;-10.00;64.55
69598;SHT31;56802;51.184;-115.558;2022-11-20T11:27:12;-9.99;64.48
69598;SHT31;56802;51.184;-115.558;2022-11-20T11:29:45;-10.05;64.51
69598;SHT31;56802;51.184;-115.558;2022-11-20T11:32:16;-10.13;64.50
69598;SHT31;56802;51.184;-115.558;2022-11-20T11:35:02;-10.16;64.60
69598;SHT31;56802;51.184;-115.558;2022-11-20T11:37:36;-10.17;64.85
69598;SHT31;56802;51.184;-115.558;2022-11-20T11:40:10;-10.13;65.00
69598;SHT31;56802;51.184;-115.558;2022-11-20T11:42:51;-10.08;65.01
69598;SHT31;56802;51.184;-115.558;2022-11-20T11:45:26;-10.06;64.75
69598;SHT31;56802;51.184;-115.558;2022-11-20T11:47:57;-10.07;64.61
69598;SHT31;56802;51.184;-115.558;2022-11-20T11:50:31;-10.07;64.57
69598;SHT31;56802;51.184;-115.558;2022-11-20T11:53:14;-10.04;64.53
69598;SHT31;56802;51.184;-115.558;2022-11-20T12:01:20;-10.10;64.53
69598;SHT31;56802;51.184;-115.558;2022-11-20T12:07:11;-10.14;64.79
69598;SHT31;56802;51.184;-115.558;2022-11-20T12:14:04;-10.09;64.56
69598;SHT31;56802;51.184;-115.558;2022-11-20T12:16:36;-10.10;64.59
69598;SHT31;56802;51.184;-115.558;2022-11-20T12:19:11;-10.14;64.52
69598;SHT31;56802;51.184;-115.558;2022-11-20T12:30:40;-10.06;64.71
69598;SHT31;56802;51.184;-115.558;2022-11-20T12:33:30;-10.07;64.84
69598;SHT31;56802;51.184;-115.558;2022-11-20T12:36:22;-10.02;64.62
69598;SHT31;56802;51.184;-115.558;2022-11-20T12:39:13;-10.02;64.56
69598;SHT31;56802;51.184;-115.558;2022-11-20T12:42:14;-10.03;64.68
69598;SHT31;56802;51.184;-115.558;2022-11-20T12:48:27;-9.98;64.54
69598;SHT31;56802;51.184;-115.558;2022-11-20T12:57:09;-9.97;64.76
69598;SHT31;56802;51.184;-115.558;2022-11-20T13:00:18;-9.91;64.49
69598;SHT31;56802;51.184;-115.558;2022-11-20T13:06:18;-9.99;64.29
69598;SHT31;56802;51.184;-115.558;2022-11-20T13:08:55;-10.01;64.42
69598;SHT31;56802;51.184;-115.558;2022-11-20T13:11:32;-10.01;64.48
69598;SHT31;56802;51.184;-115.558;2022-11-20T13:20:19;-10.17;64.61
69598;SHT31;56802;51.184;-115.558;2022-11-20T13:22:49;-10.18;64.68
69598;SHT31;56802;51.184;-115.558;2022-11-20T13:25:35;-10.22;64.67
69598;SHT31;56802;51.184;-115.558;2022-11-20T13:30:51;-10.26;64.85
69598;SHT31;56802;51.184;-115.558;2022-11-20T13:33:36;-10.24;65.18
69598;SHT31;56802;51.184;-115.558;2022-11-20T13:36:19;-10.20;65.20
69598;SHT31;56802;51.184;-115.558;2022-11-20T13:38:55;-10.17;65.12
69598;SHT31;56802;51.184;-115.558;2022-11-20T13:41:26;-10.17;64.96
69598;SHT31;56802;51.184;-115.558;2022-11-20T13:47:17;-10.15;65.02
69598;SHT31;56802;51.184;-115.558;2022-11-20T13:49:57;-10.13;65.15
69598;SHT31;56802;51.184;-115.558;2022-11-20T13:52:31;-10.11;64.94
69598;SHT31;56802;51.184;-115.558;2022-11-20T14:01:10;-10.01;64.99
69598;SHT31;56802;51.184;-115.558;2022-11-20T14:03:53;-9.99;64.96
69598;SHT31;56802;51.184;-115.558;2022-11-20T14:06:33;-9.98;65.13
69598;SHT31;56802;51.184;-115.558;2022-11-20T14:09:12;-9.95;65.21
69598;SHT31;56802;51.184;-115.558;2022-11-20T14:12:03;-9.92;64.97
69598;SHT31;56802;51.184;-115.558;2022-11-20T14:14:47;-9.89;64.63
69598;SHT31;56802;51.184;-115.558;2022-11-20T14:17:28;-9.85;64.56
69598;SHT31;56802;51.184;-115.558;2022-11-20T14:20:16;-9.82;64.25
69598;SHT31;56802;51.184;-115.558;2022-11-20T14:22:50;-9.76;64.51
69598;SHT31;56802;51.184;-115.558;2022-11-20T14:25:22;-9.65;64.40
69598;SHT31;56802;51.184;-115.558;2022-11-20T14:27:59;-9.55;64.08
69598;SHT31;56802;51.184;-115.558;2022-11-20T14:33:15;-9.56;64.00
69598;SHT31;56802;51.184;-115.558;2022-11-20T14:35:46;-9.55;63.93
69598;SHT31;56802;51.184;-115.558;2022-11-20T14:38:21;-9.57;63.98
69598;SHT31;56802;51.184;-115.558;2022-11-20T14:41:08;-9.58;64.11
69598;SHT31;56802;51.184;-115.558;2022-11-20T14:43:54;-9.57;63.90
69598;SHT31;56802;51.184;-115.558;2022-11-20T14:46:29;-9.57;64.13
69598;SHT31;56802;51.184;-115.558;2022-11-20T14:49:01;-9.53;64.15
69598;SHT31;56802;51.184;-115.558;2022-11-20T14:51:33;-9.50;64.22
69598;SHT31;56802;51.184;-115.558;2022-11-20T14:56:56;-9.46;64.13
69598;SHT31;56802;51.184;-115.558;2022-11-20T14:59:30;-9.49;64.18
69598;SHT31;56802;51.184;-115.558;2022-11-20T15:02:06;-9.52;64.08
69598;SHT31;56802;51.184;-115.558;2022-11-20T15:07:39;-9.53;64.19
69598;SHT31;56802;51.184;-115.558;2022-11-20T15:13:02;-9.51;64.08
69598;SHT31;56802;51.184;-115.558;2022-11-20T15:15:49;-9.50;64.25
69598;SHT31;56802;51.184;-115.558;2022-11-20T15:18:32;-9.47;64.45
69598;SHT31;56802;51.184;-115.558;2022-11-20T15:21:15;-9.44;64.15
69598;SHT31;56802;51.184;-115.558;2022-11-20T15:23:50;-9.42;64.21
69598;SHT31;56802;51.184;-115.558;2022-11-20T15:26:24;-9.40;64.24
69598;SHT31;56802;51.184;-115.558;2022-11-20T15:28:55;-9.40;64.30
69598;SHT31;56802;51.184;-115.558;2022-11-20T15:31:25;-9.39;64.15
69598;SHT31;56802;51.184;-115.558;2022-11-20T15:33:54;-9.33;64.16
69598;SHT31;56802;51.184;-115.558;2022-11-20T15:36:23;-9.28;64.13
69598;SHT31;56802;51.184;-115.558;2022-11-20T15:38:53;-9.25;63.92
69598;SHT31;56802;51.184;-115.558;2022-11-20T15:41:22;-9.22;63.79
69598;SHT31;56802;51.184;-115.558;2022-11-20T15:43:51;-9.20;63.73
69598;SHT31;56802;51.184;-115.558;2022-11-20T15:46:25;-9.15;63.74
69598;SHT31;56802;51.184;-115.558;2022-11-20T15:48:57;-9.10;63.74
69598;SHT31;56802;51.184;-115.558;2022-11-20T15:51:29;-9.12;63.73
69598;SHT31;56802;51.184;-115.558;2022-11-20T15:54:01;-9.14;63.74
69598;SHT31;56802;51.184;-115.558;2022-11-20T15:56:39;-9.11;63.98
69598;SHT31;56802;51.184;-115.558;2022-11-20T15:59:08;-9.07;63.91
69598;SHT31;56802;51.184;-115.558;2022-11-20T16:01:38;-9.02;64.11
69598;SHT31;56802;51.184;-115.558;2022-11-20T16:04:13;-8.96;64.03
69598;SHT31;56802;51.184;-115.558;2022-11-20T16:06:44;-8.91;63.55
69598;SHT31;56802;51.184;-115.558;2022-11-20T16:09:13;-8.86;63.40
69598;SHT31;56802;51.184;-115.558;2022-11-20T16:11:42;-8.82;63.43
69598;SHT31;56802;51.184;-115.558;2022-11-20T16:14:11;-8.75;63.24
69598;SHT31;56802;51.184;-115.558;2022-11-20T16:16:59;-8.63;63.19
69598;SHT31;56802;51.184;-115.558;2022-11-20T16:19:29;-8.56;63.00
69598;SHT31;56802;51.184;-115.558;2022-11-20T16:21:58;-8.53;62.99
69598;SHT31;56802;51.184;-115.558;2022-11-20T16:24:30;-8.45;62.49
69598;SHT31;56802;51.184;-115.558;2022-11-20T16:26:59;-8.37;62.38
69598;SHT31;56802;51.184;-115.558;2022-11-20T16:29:28;-8.29;62.35
69598;SHT31;56802;51.184;-115.558;2022-11-20T16:31:57;-8.23;62.22
69598;SHT31;56802;51.184;-115.558;2022-11-20T16:34:27;-8.14;62.05
69598;SHT31;56802;51.184;-115.558;2022-11-20T16:36:56;-8.09;61.70
69598;SHT31;56802;51.184;-115.558;2022-11-20T16:39:25;-8.07;61.36
69598;SHT31;56802;51.184;-115.558;2022-11-20T16:41:54;-8.05;61.46
69598;SHT31;56802;51.184;-115.558;2022-11-20T16:44:23;-8.04;61.24
69598;SHT31;56802;51.184;-115.558;2022-11-20T16:46:52;-8.05;61.05
69598;SHT31;56802;51.184;-115.558;2022-11-20T16:49:22;-8.03;61.26
69598;SHT31;56802;51.184;-115.558;2022-11-20T16:51:51;-7.98;61.67
69598;SHT31;56802;51.184;-115.558;2022-11-20T16:54:21;-7.90;61.88
69598;SHT31;56802;51.184;-115.558;2022-11-20T16:56:50;-7.82;61.72
69598;SHT31;56802;51.184;-115.558;2022-11-20T16:59:20;-7.74;61.47
69598;SHT31;56802;51.184;-115.558;2022-11-20T17:01:49;-7.71;61.01
69598;SHT31;56802;51.184;-115.558;2022-11-20T17:04:18;-7.71;61.09
69598;SHT31;56802;51.184;-115.558;2022-11-20T17:06:48;-7.70;60.81
69598;SHT31;56802;51.184;-115.558;2022-11-20T17:09:18;-7.70;60.80
69598;SHT31;56802;51.184;-115.558;2022-11-20T17:11:48;-7.66;61.21